Terminal Aerodrome Forecast
Issued by NWS

Current Version | Previous Version | Text Only | Print | Product List | Glossary On
Versions: 1 2 3 4 5 6 7 8 9 10 11 12 13 14 15 16 17 18 19 20
000
FTUS44 KOHX 212300
TAFCKV
TAF
KCKV 212331Z 2200/2224 03005KT P6SM SKC
      TEMPO 2209/2213 00000KT 3SM BR
     FM221400 04005KT P6SM SKC=

USA.gov is the U.S. government's official web portal to all federal, state and local government web resources and services.